sensor_id;sensor_type;location;lat;lon;timestamp;temperature;humidity
18043;DHT22;9146;48.074;11.968;2023-02-15T00:01:23;-2.20;99.90
18043;DHT22;9146;48.074;11.968;2023-02-15T00:03:50;-2.20;99.90
18043;DHT22;9146;48.074;11.968;2023-02-15T00:06:18;-2.20;99.90
18043;DHT22;9146;48.074;11.968;2023-02-15T00:08:45;-2.20;99.90
18043;DHT22;9146;48.074;11.968;2023-02-15T00:11:13;-2.20;99.90
18043;DHT22;9146;48.074;11.968;2023-02-15T00:13:41;-2.20;99.90
18043;DHT22;9146;48.074;11.968;2023-02-15T00:16:10;-2.20;99.90
18043;DHT22;9146;48.074;11.968;2023-02-15T00:18:39;-2.20;99.90
18043;DHT22;9146;48.074;11.968;2023-02-15T00:21:08;-2.20;99.90
18043;DHT22;9146;48.074;11.968;2023-02-15T00:23:35;-2.20;99.90
18043;DHT22;9146;48.074;11.968;2023-02-15T00:26:04;-2.20;99.90
18043;DHT22;9146;48.074;11.968;2023-02-15T00:28:31;-2.20;99.90
18043;DHT22;9146;48.074;11.968;2023-02-15T00:31:03;-2.20;99.90
18043;DHT22;9146;48.074;11.968;2023-02-15T00:33:30;-2.20;99.90
18043;DHT22;9146;48.074;11.968;2023-02-15T00:35:59;-2.20;99.90
18043;DHT22;9146;48.074;11.968;2023-02-15T00:38:27;-2.20;99.90
18043;DHT22;9146;48.074;11.968;2023-02-15T00:40:55;-2.20;99.90
18043;DHT22;9146;48.074;11.968;2023-02-15T00:43:22;-2.20;99.90
18043;DHT22;9146;48.074;11.968;2023-02-15T00:45:49;-2.20;99.90
18043;DHT22;9146;48.074;11.968;2023-02-15T00:48:16;-2.20;99.90
18043;DHT22;9146;48.074;11.968;2023-02-15T00:50:45;-2.20;99.90
18043;DHT22;9146;48.074;11.968;2023-02-15T00:53:13;-2.20;99.90
18043;DHT22;9146;48.074;11.968;2023-02-15T00:55:40;-2.20;99.90
18043;DHT22;9146;48.074;11.968;2023-02-15T00:58:07;-2.20;99.90
18043;DHT22;9146;48.074;11.968;2023-02-15T01:00:35;-2.20;99.90
18043;DHT22;9146;48.074;11.968;2023-02-15T01:03:03;-2.20;99.90
18043;DHT22;9146;48.074;11.968;2023-02-15T01:05:30;-2.10;99.90
18043;DHT22;9146;48.074;11.968;2023-02-15T01:08:02;-2.20;99.90
18043;DHT22;9146;48.074;11.968;2023-02-15T01:10:35;-2.20;99.90
18043;DHT22;9146;48.074;11.968;2023-02-15T01:13:02;-2.20;99.90
18043;DHT22;9146;48.074;11.968;2023-02-15T01:15:29;-2.20;99.90
18043;DHT22;9146;48.074;11.968;2023-02-15T01:17:56;-2.20;99.90
18043;DHT22;9146;48.074;11.968;2023-02-15T01:20:25;-2.10;99.90
18043;DHT22;9146;48.074;11.968;2023-02-15T01:22:53;-2.10;99.90
18043;DHT22;9146;48.074;11.968;2023-02-15T01:25:21;-2.20;99.90
18043;DHT22;9146;48.074;11.968;2023-02-15T01:27:50;-2.20;99.90
18043;DHT22;9146;48.074;11.968;2023-02-15T01:30:17;-2.20;99.90
18043;DHT22;9146;48.074;11.968;2023-02-15T01:32:44;-2.20;99.90
18043;DHT22;9146;48.074;11.968;2023-02-15T01:35:11;-2.20;99.90
18043;DHT22;9146;48.074;11.968;2023-02-15T01:37:38;-2.20;99.90
18043;DHT22;9146;48.074;11.968;2023-02-15T01:40:07;-2.20;99.90
18043;DHT22;9146;48.074;11.968;2023-02-15T01:42:35;-2.20;99.90
18043;DHT22;9146;48.074;11.968;2023-02-15T01:45:05;-2.20;99.90
18043;DHT22;9146;48.074;11.968;2023-02-15T01:47:43;-2.20;99.90
18043;DHT22;9146;48.074;11.968;2023-02-15T01:50:13;-2.20;99.90
18043;DHT22;9146;48.074;11.968;2023-02-15T01:52:48;-2.20;99.90
18043;DHT22;9146;48.074;11.968;2023-02-15T01:55:15;-2.20;99.90
18043;DHT22;9146;48.074;11.968;2023-02-15T01:57:43;-2.10;99.90
18043;DHT22;9146;48.074;11.968;2023-02-15T02:00:14;-2.10;99.90
18043;DHT22;9146;48.074;11.968;2023-02-15T02:02:44;-2.10;99.90
18043;DHT22;9146;48.074;11.968;2023-02-15T02:05:11;-2.10;99.90
18043;DHT22;9146;48.074;11.968;2023-02-15T02:07:40;-2.10;99.90
18043;DHT22;9146;48.074;11.968;2023-02-15T02:10:11;-2.10;99.90
18043;DHT22;9146;48.074;11.968;2023-02-15T02:12:40;-2.10;99.90
18043;DHT22;9146;48.074;11.968;2023-02-15T02:15:09;-2.10;99.90
18043;DHT22;9146;48.074;11.968;2023-02-15T02:17:46;-2.10;99.90
18043;DHT22;9146;48.074;11.968;2023-02-15T02:20:42;-2.10;99.90
18043;DHT22;9146;48.074;11.968;2023-02-15T02:23:25;-2.10;99.90
18043;DHT22;9146;48.074;11.968;2023-02-15T02:26:26;-2.10;99.90
18043;DHT22;9146;48.074;11.968;2023-02-15T02:29:27;-2.10;99.90
18043;DHT22;9146;48.074;11.968;2023-02-15T02:35:10;-2.10;99.90
18043;DHT22;9146;48.074;11.968;2023-02-15T02:37:48;-2.10;99.90
18043;DHT22;9146;48.074;11.968;2023-02-15T02:40:23;-2.10;99.90
18043;DHT22;9146;48.074;11.968;2023-02-15T02:42:55;-2.10;99.90
18043;DHT22;9146;48.074;11.968;2023-02-15T02:45:30;-2.10;99.90
18043;DHT22;9146;48.074;11.968;2023-02-15T02:48:02;-2.10;99.90
18043;DHT22;9146;48.074;11.968;2023-02-15T02:50:31;-2.10;99.90
18043;DHT22;9146;48.074;11.968;2023-02-15T02:52:59;-2.10;99.90
18043;DHT22;9146;48.074;11.968;2023-02-15T02:55:29;-2.10;99.90
18043;DHT22;9146;48.074;11.968;2023-02-15T02:58:00;-2.20;99.90
18043;DHT22;9146;48.074;11.968;2023-02-15T03:00:31;-2.20;99.90
18043;DHT22;9146;48.074;11.968;2023-02-15T03:03:02;-2.20;99.90
18043;DHT22;9146;48.074;11.968;2023-02-15T03:05:34;-2.20;99.90
18043;DHT22;9146;48.074;11.968;2023-02-15T03:08:05;-2.20;99.90
18043;DHT22;9146;48.074;11.968;2023-02-15T03:10:35;-2.20;99.90
18043;DHT22;9146;48.074;11.968;2023-02-15T03:13:03;-2.20;99.90
18043;DHT22;9146;48.074;11.968;2023-02-15T03:15:33;-2.20;99.90
18043;DHT22;9146;48.074;11.968;2023-02-15T03:18:17;-2.20;99.90
18043;DHT22;9146;48.074;11.968;2023-02-15T03:20:46;-2.20;99.90
18043;DHT22;9146;48.074;11.968;2023-02-15T03:23:17;-2.20;99.90
18043;DHT22;9146;48.074;11.968;2023-02-15T03:25:50;-2.20;99.90
18043;DHT22;9146;48.074;11.968;2023-02-15T03:28:20;-2.20;99.90
18043;DHT22;9146;48.074;11.968;2023-02-15T03:30:52;-2.20;99.90
18043;DHT22;9146;48.074;11.968;2023-02-15T03:33:23;-2.30;99.90
18043;DHT22;9146;48.074;11.968;2023-02-15T03:35:54;-2.30;99.90
18043;DHT22;9146;48.074;11.968;2023-02-15T03:38:28;-2.30;99.90
18043;DHT22;9146;48.074;11.968;2023-02-15T03:40:59;-2.30;99.90
18043;DHT22;9146;48.074;11.968;2023-02-15T03:43:42;-2.30;99.90
18043;DHT22;9146;48.074;11.968;2023-02-15T03:46:17;-2.30;99.90
18043;DHT22;9146;48.074;11.968;2023-02-15T03:48:49;-2.30;99.90
18043;DHT22;9146;48.074;11.968;2023-02-15T03:51:21;-2.30;99.90
18043;DHT22;9146;48.074;11.968;2023-02-15T03:54:02;-2.30;99.90
18043;DHT22;9146;48.074;11.968;2023-02-15T03:56:31;-2.30;99.90
18043;DHT22;9146;48.074;11.968;2023-02-15T03:58:59;-2.30;99.90
18043;DHT22;9146;48.074;11.968;2023-02-15T04:01:48;-2.30;99.90
18043;DHT22;9146;48.074;11.968;2023-02-15T04:04:28;-2.30;99.90
18043;DHT22;9146;48.074;11.968;2023-02-15T04:06:59;-2.30;99.90
18043;DHT22;9146;48.074;11.968;2023-02-15T04:09:26;-2.30;99.90
18043;DHT22;9146;48.074;11.968;2023-02-15T04:12:11;-2.30;99.90
18043;DHT22;9146;48.074;11.968;2023-02-15T04:14:38;-2.30;99.90
18043;DHT22;9146;48.074;11.968;2023-02-15T04:17:22;-2.30;99.90
18043;DHT22;9146;48.074;11.968;2023-02-15T04:19:49;-2.30;99.90
18043;DHT22;9146;48.074;11.968;2023-02-15T04:22:34;-2.30;99.90
18043;DHT22;9146;48.074;11.968;2023-02-15T04:25:19;-2.30;99.90
18043;DHT22;9146;48.074;11.968;2023-02-15T04:27:48;-2.30;99.90
18043;DHT22;9146;48.074;11.968;2023-02-15T04:30:17;-2.30;99.90
18043;DHT22;9146;48.074;11.968;2023-02-15T04:32:45;-2.40;99.90
18043;DHT22;9146;48.074;11.968;2023-02-15T04:35:13;-2.40;99.90
18043;DHT22;9146;48.074;11.968;2023-02-15T04:37:43;-2.40;99.90
18043;DHT22;9146;48.074;11.968;2023-02-15T04:40:13;-2.40;99.90
18043;DHT22;9146;48.074;11.968;2023-02-15T04:42:40;-2.40;99.90
18043;DHT22;9146;48.074;11.968;2023-02-15T04:45:07;-2.40;99.90
18043;DHT22;9146;48.074;11.968;2023-02-15T04:47:34;-2.40;99.90
18043;DHT22;9146;48.074;11.968;2023-02-15T04:50:01;-2.40;99.90
18043;DHT22;9146;48.074;11.968;2023-02-15T04:52:28;-2.40;99.90
18043;DHT22;9146;48.074;11.968;2023-02-15T04:54:57;-2.40;99.90
18043;DHT22;9146;48.074;11.968;2023-02-15T04:57:24;-2.40;99.90
18043;DHT22;9146;48.074;11.968;2023-02-15T04:59:51;-2.40;99.90
18043;DHT22;9146;48.074;11.968;2023-02-15T05:02:18;-2.30;99.90
18043;DHT22;9146;48.074;11.968;2023-02-15T05:04:45;-2.30;99.90
18043;DHT22;9146;48.074;11.968;2023-02-15T05:07:12;-2.30;99.90
18043;DHT22;9146;48.074;11.968;2023-02-15T05:09:40;-2.30;99.90
18043;DHT22;9146;48.074;11.968;2023-02-15T05:12:08;-2.30;99.90
18043;DHT22;9146;48.074;11.968;2023-02-15T05:14:35;-2.30;99.90
18043;DHT22;9146;48.074;11.968;2023-02-15T05:17:02;-2.30;99.90
18043;DHT22;9146;48.074;11.968;2023-02-15T05:19:30;-2.30;99.90
18043;DHT22;9146;48.074;11.968;2023-02-15T05:21:57;-2.30;99.90
18043;DHT22;9146;48.074;11.968;2023-02-15T05:24:24;-2.30;99.90
18043;DHT22;9146;48.074;11.968;2023-02-15T05:27:12;-2.30;99.90
18043;DHT22;9146;48.074;11.968;2023-02-15T05:29:56;-2.40;99.90
18043;DHT22;9146;48.074;11.968;2023-02-15T05:32:24;-2.40;99.90
18043;DHT22;9146;48.074;11.968;2023-02-15T05:34:50;-2.40;99.90
18043;DHT22;9146;48.074;11.968;2023-02-15T05:37:17;-2.40;99.90
18043;DHT22;9146;48.074;11.968;2023-02-15T05:39:44;-2.40;99.90
18043;DHT22;9146;48.074;11.968;2023-02-15T05:42:13;-2.40;99.90
18043;DHT22;9146;48.074;11.968;2023-02-15T05:44:40;-2.40;99.90
18043;DHT22;9146;48.074;11.968;2023-02-15T05:47:06;-2.40;99.90
18043;DHT22;9146;48.074;11.968;2023-02-15T05:49:33;-2.40;99.90
18043;DHT22;9146;48.074;11.968;2023-02-15T05:52:01;-2.40;99.90
18043;DHT22;9146;48.074;11.968;2023-02-15T05:54:28;-2.40;99.90
18043;DHT22;9146;48.074;11.968;2023-02-15T05:56:55;-2.40;99.90
18043;DHT22;9146;48.074;11.968;2023-02-15T05:59:24;-2.40;99.90
18043;DHT22;9146;48.074;11.968;2023-02-15T06:01:50;-2.40;99.90
18043;DHT22;9146;48.074;11.968;2023-02-15T06:04:18;-2.40;99.90
18043;DHT22;9146;48.074;11.968;2023-02-15T06:06:45;-2.40;99.90
18043;DHT22;9146;48.074;11.968;2023-02-15T06:09:13;-2.50;99.90
18043;DHT22;9146;48.074;11.968;2023-02-15T06:11:40;-2.50;99.90
18043;DHT22;9146;48.074;11.968;2023-02-15T06:14:07;-2.60;99.90
18043;DHT22;9146;48.074;11.968;2023-02-15T06:16:35;-2.60;99.90
18043;DHT22;9146;48.074;11.968;2023-02-15T06:19:02;-2.60;99.90
18043;DHT22;9146;48.074;11.968;2023-02-15T06:21:29;-2.70;99.90
18043;DHT22;9146;48.074;11.968;2023-02-15T06:23:56;-2.70;99.90
18043;DHT22;9146;48.074;11.968;2023-02-15T06:26:23;-2.70;99.90
18043;DHT22;9146;48.074;11.968;2023-02-15T06:28:50;-2.70;99.90
18043;DHT22;9146;48.074;11.968;2023-02-15T06:31:17;-2.70;99.90
18043;DHT22;9146;48.074;11.968;2023-02-15T06:33:45;-2.70;99.90
18043;DHT22;9146;48.074;11.968;2023-02-15T06:36:12;-2.70;99.90
18043;DHT22;9146;48.074;11.968;2023-02-15T06:38:39;-2.70;99.90
18043;DHT22;9146;48.074;11.968;2023-02-15T06:41:06;-2.60;99.90
18043;DHT22;9146;48.074;11.968;2023-02-15T06:43:33;-2.70;99.90
18043;DHT22;9146;48.074;11.968;2023-02-15T06:46:00;-2.60;99.90
18043;DHT22;9146;48.074;11.968;2023-02-15T06:48:27;-2.60;99.90
18043;DHT22;9146;48.074;11.968;2023-02-15T06:50:55;-2.60;99.90
18043;DHT22;9146;48.074;11.968;2023-02-15T06:53:22;-2.60;99.90
18043;DHT22;9146;48.074;11.968;2023-02-15T06:55:49;-2.60;99.90
18043;DHT22;9146;48.074;11.968;2023-02-15T06:58:16;-2.60;99.90
18043;DHT22;9146;48.074;11.968;2023-02-15T07:00:43;-2.60;99.90
18043;DHT22;9146;48.074;11.968;2023-02-15T07:03:14;-2.60;99.90
18043;DHT22;9146;48.074;11.968;2023-02-15T07:05:41;-2.60;99.90
18043;DHT22;9146;48.074;11.968;2023-02-15T07:08:10;-2.50;99.90
18043;DHT22;9146;48.074;11.968;2023-02-15T07:10:37;-2.50;99.90
18043;DHT22;9146;48.074;11.968;2023-02-15T07:13:04;-2.50;99.90
18043;DHT22;9146;48.074;11.968;2023-02-15T07:15:30;-2.50;99.90
18043;DHT22;9146;48.074;11.968;2023-02-15T07:17:58;-2.50;99.90
18043;DHT22;9146;48.074;11.968;2023-02-15T07:20:25;-2.50;99.90
18043;DHT22;9146;48.074;11.968;2023-02-15T07:22:52;-2.40;99.90
18043;DHT22;9146;48.074;11.968;2023-02-15T07:25:21;-2.40;99.90
18043;DHT22;9146;48.074;11.968;2023-02-15T07:27:48;-2.50;99.90
18043;DHT22;9146;48.074;11.968;2023-02-15T07:30:16;-2.50;99.90
18043;DHT22;9146;48.074;11.968;2023-02-15T07:32:44;-2.40;99.90
18043;DHT22;9146;48.074;11.968;2023-02-15T07:35:28;-2.40;99.90
18043;DHT22;9146;48.074;11.968;2023-02-15T07:37:55;-2.30;99.90
18043;DHT22;9146;48.074;11.968;2023-02-15T07:40:23;-2.30;99.90
18043;DHT22;9146;48.074;11.968;2023-02-15T07:42:50;-2.30;99.90
18043;DHT22;9146;48.074;11.968;2023-02-15T07:45:20;-2.30;99.90
18043;DHT22;9146;48.074;11.968;2023-02-15T07:47:47;-2.20;99.90
18043;DHT22;9146;48.074;11.968;2023-02-15T07:50:14;-2.10;99.90
18043;DHT22;9146;48.074;11.968;2023-02-15T07:52:41;-2.00;99.90
18043;DHT22;9146;48.074;11.968;2023-02-15T07:55:08;-1.90;99.90
18043;DHT22;9146;48.074;11.968;2023-02-15T07:57:41;-1.90;99.90
18043;DHT22;9146;48.074;11.968;2023-02-15T08:00:10;-1.90;99.90
18043;DHT22;9146;48.074;11.968;2023-02-15T08:02:38;-1.80;99.90
18043;DHT22;9146;48.074;11.968;2023-02-15T08:05:05;-1.70;99.90
18043;DHT22;9146;48.074;11.968;2023-02-15T08:07:32;-1.70;99.90
18043;DHT22;9146;48.074;11.968;2023-02-15T08:09:59;-1.60;99.90
18043;DHT22;9146;48.074;11.968;2023-02-15T08:12:26;-1.60;99.90
18043;DHT22;9146;48.074;11.968;2023-02-15T08:14:55;-1.50;99.90
18043;DHT22;9146;48.074;11.968;2023-02-15T08:17:21;-1.50;99.90
18043;DHT22;9146;48.074;11.968;2023-02-15T08:19:49;-1.40;99.90
18043;DHT22;9146;48.074;11.968;2023-02-15T08:22:15;-1.40;99.90
18043;DHT22;9146;48.074;11.968;2023-02-15T08:24:42;-1.30;99.90
18043;DHT22;9146;48.074;11.968;2023-02-15T08:27:10;-1.20;99.90
18043;DHT22;9146;48.074;11.968;2023-02-15T08:29:38;-1.20;99.90
18043;DHT22;9146;48.074;11.968;2023-02-15T08:32:10;-1.10;99.90
18043;DHT22;9146;48.074;11.968;2023-02-15T08:34:39;-1.10;99.90
18043;DHT22;9146;48.074;11.968;2023-02-15T08:37:07;-1.10;99.90
18043;DHT22;9146;48.074;11.968;2023-02-15T08:39:34;-0.90;99.90
18043;DHT22;9146;48.074;11.968;2023-02-15T08:42:02;-0.90;99.90
18043;DHT22;9146;48.074;11.968;2023-02-15T08:44:29;-0.80;99.90
18043;DHT22;9146;48.074;11.968;2023-02-15T08:46:56;-0.80;99.90
18043;DHT22;9146;48.074;11.968;2023-02-15T08:49:30;-0.70;99.90
18043;DHT22;9146;48.074;11.968;2023-02-15T08:51:57;-0.60;99.90
18043;DHT22;9146;48.074;11.968;2023-02-15T08:54:24;-0.60;99.90
18043;DHT22;9146;48.074;11.968;2023-02-15T08:56:51;-0.50;99.90
18043;DHT22;9146;48.074;11.968;2023-02-15T08:59:20;-0.40;99.90
18043;DHT22;9146;48.074;11.968;2023-02-15T09:01:48;-0.30;99.90
18043;DHT22;9146;48.074;11.968;2023-02-15T09:04:15;-0.30;99.90
18043;DHT22;9146;48.074;11.968;2023-02-15T09:06:45;-0.20;99.90
18043;DHT22;9146;48.074;11.968;2023-02-15T09:09:13;-0.10;99.90
18043;DHT22;9146;48.074;11.968;2023-02-15T09:11:42;-0.10;99.90
18043;DHT22;9146;48.074;11.968;2023-02-15T09:14:11;0.00;99.90
18043;DHT22;9146;48.074;11.968;2023-02-15T09:16:39;0.10;99.90
18043;DHT22;9146;48.074;11.968;2023-02-15T09:19:07;0.20;99.90
18043;DHT22;9146;48.074;11.968;2023-02-15T09:21:35;0.20;99.90
18043;DHT22;9146;48.074;11.968;2023-02-15T09:24:06;0.20;99.90
18043;DHT22;9146;48.074;11.968;2023-02-15T09:26:35;0.30;99.90
18043;DHT22;9146;48.074;11.968;2023-02-15T09:29:03;0.50;99.90
18043;DHT22;9146;48.074;11.968;2023-02-15T09:31:31;0.60;99.90
18043;DHT22;9146;48.074;11.968;2023-02-15T09:33:59;0.60;99.90
18043;DHT22;9146;48.074;11.968;2023-02-15T09:36:30;0.70;99.90
18043;DHT22;9146;48.074;11.968;2023-02-15T09:38:59;0.80;99.90
18043;DHT22;9146;48.074;11.968;2023-02-15T09:41:53;0.90;99.90
18043;DHT22;9146;48.074;11.968;2023-02-15T09:44:33;1.00;99.90
18043;DHT22;9146;48.074;11.968;2023-02-15T09:47:17;1.10;99.90
18043;DHT22;9146;48.074;11.968;2023-02-15T09:49:54;1.00;99.90
18043;DHT22;9146;48.074;11.968;2023-02-15T09:52:53;0.90;99.90
18043;DHT22;9146;48.074;11.968;2023-02-15T09:55:36;0.80;99.90
18043;DHT22;9146;48.074;11.968;2023-02-15T09:58:14;0.80;99.90
18043;DHT22;9146;48.074;11.968;2023-02-15T10:00:50;0.70;99.90
18043;DHT22;9146;48.074;11.968;2023-02-15T10:06:32;0.60;99.90
18043;DHT22;9146;48.074;11.968;2023-02-15T10:09:14;0.60;99.90
18043;DHT22;9146;48.074;11.968;2023-02-15T10:11:56;0.50;99.90
18043;DHT22;9146;48.074;11.968;2023-02-15T10:14:45;0.60;99.90
18043;DHT22;9146;48.074;11.968;2023-02-15T10:17:29;0.70;99.90
18043;DHT22;9146;48.074;11.968;2023-02-15T10:20:08;0.90;99.90
18043;DHT22;9146;48.074;11.968;2023-02-15T10:22:46;1.10;99.90
18043;DHT22;9146;48.074;11.968;2023-02-15T10:25:28;1.30;99.90
18043;DHT22;9146;48.074;11.968;2023-02-15T10:28:03;1.30;99.90
18043;DHT22;9146;48.074;11.968;2023-02-15T10:30:39;1.30;99.90
18043;DHT22;9146;48.074;11.968;2023-02-15T10:33:14;1.10;99.90
18043;DHT22;9146;48.074;11.968;2023-02-15T10:35:48;1.00;99.90
18043;DHT22;9146;48.074;11.968;2023-02-15T10:38:23;0.80;99.90
18043;DHT22;9146;48.074;11.968;2023-02-15T10:41:01;0.80;99.90
18043;DHT22;9146;48.074;11.968;2023-02-15T10:43:45;0.80;99.90
18043;DHT22;9146;48.074;11.968;2023-02-15T10:46:26;0.80;99.90
18043;DHT22;9146;48.074;11.968;2023-02-15T10:49:23;0.70;99.90
18043;DHT22;9146;48.074;11.968;2023-02-15T10:52:03;0.70;99.90
18043;DHT22;9146;48.074;11.968;2023-02-15T10:54:39;0.70;99.90
18043;DHT22;9146;48.074;11.968;2023-02-15T10:57:16;0.70;99.90
18043;DHT22;9146;48.074;11.968;2023-02-15T11:00:01;0.70;99.90
18043;DHT22;9146;48.074;11.968;2023-02-15T11:02:43;0.80;99.90
18043;DHT22;9146;48.074;11.968;2023-02-15T11:05:25;0.90;99.90
18043;DHT22;9146;48.074;11.968;2023-02-15T11:07:55;1.00;99.90
18043;DHT22;9146;48.074;11.968;2023-02-15T11:10:30;1.10;99.90
18043;DHT22;9146;48.074;11.968;2023-02-15T11:13:04;1.00;99.90
18043;DHT22;9146;48.074;11.968;2023-02-15T11:15:35;1.10;99.90
18043;DHT22;9146;48.074;11.968;2023-02-15T11:18:11;1.10;99.90
18043;DHT22;9146;48.074;11.968;2023-02-15T11:20:45;1.20;99.90
18043;DHT22;9146;48.074;11.968;2023-02-15T11:23:16;1.20;99.90
18043;DHT22;9146;48.074;11.968;2023-02-15T11:25:46;1.30;99.90
18043;DHT22;9146;48.074;11.968;2023-02-15T11:28:23;1.40;99.90
18043;DHT22;9146;48.074;11.968;2023-02-15T11:30:54;1.40;99.90
18043;DHT22;9146;48.074;11.968;2023-02-15T11:33:26;1.40;99.90
18043;DHT22;9146;48.074;11.968;2023-02-15T11:35:58;1.50;99.90
18043;DHT22;9146;48.074;11.968;2023-02-15T11:38:30;1.50;99.90
18043;DHT22;9146;48.074;11.968;2023-02-15T11:41:01;1.60;99.90
18043;DHT22;9146;48.074;11.968;2023-02-15T11:43:35;1.70;99.90
18043;DHT22;9146;48.074;11.968;2023-02-15T11:46:04;1.70;99.90
18043;DHT22;9146;48.074;11.968;2023-02-15T11:48:32;1.80;99.90
18043;DHT22;9146;48.074;11.968;2023-02-15T11:51:02;1.90;99.90
18043;DHT22;9146;48.074;11.968;2023-02-15T11:53:32;2.00;99.90
18043;DHT22;9146;48.074;11.968;2023-02-15T11:56:00;2.00;99.90
18043;DHT22;9146;48.074;11.968;2023-02-15T11:58:33;2.10;99.90
18043;DHT22;9146;48.074;11.968;2023-02-15T12:01:10;2.10;99.90
18043;DHT22;9146;48.074;11.968;2023-02-15T12:03:45;2.20;99.90
18043;DHT22;9146;48.074;11.968;2023-02-15T12:06:18;2.30;99.90
18043;DHT22;9146;48.074;11.968;2023-02-15T12:08:54;2.30;99.90
18043;DHT22;9146;48.074;11.968;2023-02-15T12:11:27;2.40;99.90
18043;DHT22;9146;48.074;11.968;2023-02-15T12:13:57;2.50;99.90
18043;DHT22;9146;48.074;11.968;2023-02-15T12:16:25;2.50;99.90
18043;DHT22;9146;48.074;11.968;2023-02-15T12:18:56;2.60;99.90
18043;DHT22;9146;48.074;11.968;2023-02-15T12:21:31;2.70;99.90
18043;DHT22;9146;48.074;11.968;2023-02-15T12:24:03;2.70;99.90
18043;DHT22;9146;48.074;11.968;2023-02-15T12:26:37;2.80;99.90
18043;DHT22;9146;48.074;11.968;2023-02-15T12:29:11;2.80;99.90
18043;DHT22;9146;48.074;11.968;2023-02-15T12:31:41;2.90;99.90
18043;DHT22;9146;48.074;11.968;2023-02-15T12:34:17;3.00;99.90
18043;DHT22;9146;48.074;11.968;2023-02-15T12:36:49;3.00;99.90
18043;DHT22;9146;48.074;11.968;2023-02-15T12:39:22;3.10;99.90
18043;DHT22;9146;48.074;11.968;2023-02-15T12:42:02;3.10;99.90
18043;DHT22;9146;48.074;11.968;2023-02-15T12:44:31;3.20;99.90
18043;DHT22;9146;48.074;11.968;2023-02-15T12:47:01;3.20;99.90
18043;DHT22;9146;48.074;11.968;2023-02-15T12:49:31;3.30;99.90
18043;DHT22;9146;48.074;11.968;2023-02-15T12:51:59;3.40;99.90
18043;DHT22;9146;48.074;11.968;2023-02-15T12:54:36;3.50;99.90
18043;DHT22;9146;48.074;11.968;2023-02-15T12:57:21;3.50;99.90
18043;DHT22;9146;48.074;11.968;2023-02-15T12:59:51;3.60;99.90
18043;DHT22;9146;48.074;11.968;2023-02-15T13:02:25;3.60;99.90
18043;DHT22;9146;48.074;11.968;2023-02-15T13:04:56;3.70;99.90
18043;DHT22;9146;48.074;11.968;2023-02-15T13:07:29;3.80;99.90
18043;DHT22;9146;48.074;11.968;2023-02-15T13:09:57;3.80;99.90
18043;DHT22;9146;48.074;11.968;2023-02-15T13:12:25;3.90;99.90
18043;DHT22;9146;48.074;11.968;2023-02-15T13:14:54;3.90;99.90
18043;DHT22;9146;48.074;11.968;2023-02-15T13:17:25;3.90;99.90
18043;DHT22;9146;48.074;11.968;2023-02-15T13:19:59;4.00;99.90
18043;DHT22;9146;48.074;11.968;2023-02-15T13:22:33;4.00;99.90
18043;DHT22;9146;48.074;11.968;2023-02-15T13:25:05;4.10;99.90
18043;DHT22;9146;48.074;11.968;2023-02-15T13:27:37;4.10;99.90
18043;DHT22;9146;48.074;11.968;2023-02-15T13:30:17;4.20;99.90
18043;DHT22;9146;48.074;11.968;2023-02-15T13:32:49;4.20;99.90
18043;DHT22;9146;48.074;11.968;2023-02-15T13:35:20;4.30;99.90
18043;DHT22;9146;48.074;11.968;2023-02-15T13:38:06;4.30;99.90
18043;DHT22;9146;48.074;11.968;2023-02-15T13:40:37;4.40;99.90
18043;DHT22;9146;48.074;11.968;2023-02-15T13:43:19;4.50;99.90
18043;DHT22;9146;48.074;11.968;2023-02-15T13:45:56;4.50;99.90
18043;DHT22;9146;48.074;11.968;2023-02-15T13:48:32;4.60;99.90
18043;DHT22;9146;48.074;11.968;2023-02-15T13:51:09;4.60;99.90
18043;DHT22;9146;48.074;11.968;2023-02-15T13:54:00;4.70;99.90
18043;DHT22;9146;48.074;11.968;2023-02-15T13:56:40;4.70;99.90
18043;DHT22;9146;48.074;11.968;2023-02-15T14:02:28;4.80;99.90
18043;DHT22;9146;48.074;11.968;2023-02-15T14:05:15;4.80;99.90
18043;DHT22;9146;48.074;11.968;2023-02-15T14:08:04;4.80;99.90
18043;DHT22;9146;48.074;11.968;2023-02-15T14:10:47;4.90;99.90
18043;DHT22;9146;48.074;11.968;2023-02-15T14:16:22;5.00;99.90
18043;DHT22;9146;48.074;11.968;2023-02-15T14:18:56;5.00;99.90
18043;DHT22;9146;48.074;11.968;2023-02-15T14:21:31;5.10;99.90
18043;DHT22;9146;48.074;11.968;2023-02-15T14:24:18;5.10;99.90
18043;DHT22;9146;48.074;11.968;2023-02-15T14:26:56;5.10;99.90
18043;DHT22;9146;48.074;11.968;2023-02-15T14:29:36;5.20;99.90
18043;DHT22;9146;48.074;11.968;2023-02-15T14:32:11;5.10;99.90
18043;DHT22;9146;48.074;11.968;2023-02-15T14:34:45;5.10;99.90
18043;DHT22;9146;48.074;11.968;2023-02-15T14:37:16;5.20;99.90
18043;DHT22;9146;48.074;11.968;2023-02-15T14:39:52;5.20;99.90
18043;DHT22;9146;48.074;11.968;2023-02-15T14:42:44;5.20;99.90
18043;DHT22;9146;48.074;11.968;2023-02-15T14:45:20;5.20;99.90
18043;DHT22;9146;48.074;11.968;2023-02-15T14:47:55;5.20;99.90
18043;DHT22;9146;48.074;11.968;2023-02-15T14:50:45;5.20;99.90
18043;DHT22;9146;48.074;11.968;2023-02-15T14:56:23;5.30;99.90
18043;DHT22;9146;48.074;11.968;2023-02-15T14:59:13;5.30;99.90
18043;DHT22;9146;48.074;11.968;2023-02-15T15:01:41;5.30;99.90
18043;DHT22;9146;48.074;11.968;2023-02-15T15:04:12;5.30;99.90
18043;DHT22;9146;48.074;11.968;2023-02-15T15:06:41;5.30;99.90
18043;DHT22;9146;48.074;11.968;2023-02-15T15:09:19;5.20;99.90
18043;DHT22;9146;48.074;11.968;2023-02-15T15:11:49;5.20;99.90
18043;DHT22;9146;48.074;11.968;2023-02-15T15:14:37;5.20;99.90
18043;DHT22;9146;48.074;11.968;2023-02-15T15:17:05;5.20;99.90
18043;DHT22;9146;48.074;11.968;2023-02-15T15:20:03;5.20;99.90
18043;DHT22;9146;48.074;11.968;2023-02-15T15:22:33;5.20;99.90
18043;DHT22;9146;48.074;11.968;2023-02-15T15:25:02;5.10;99.90
18043;DHT22;9146;48.074;11.968;2023-02-15T15:27:49;5.10;99.90
18043;DHT22;9146;48.074;11.968;2023-02-15T15:40:07;5.20;99.90
18043;DHT22;9146;48.074;11.968;2023-02-15T15:42:49;5.10;99.90
18043;DHT22;9146;48.074;11.968;2023-02-15T15:45:41;5.00;99.90
18043;DHT22;9146;48.074;11.968;2023-02-15T15:48:27;5.00;99.90
18043;DHT22;9146;48.074;11.968;2023-02-15T15:50:58;4.90;99.90
18043;DHT22;9146;48.074;11.968;2023-02-15T15:53:29;4.90;99.90
18043;DHT22;9146;48.074;11.968;2023-02-15T15:56:02;4.80;99.90
18043;DHT22;9146;48.074;11.968;2023-02-15T15:58:33;4.80;99.90
18043;DHT22;9146;48.074;11.968;2023-02-15T16:01:04;4.80;99.90
18043;DHT22;9146;48.074;11.968;2023-02-15T16:03:32;4.70;99.90
18043;DHT22;9146;48.074;11.968;2023-02-15T16:05:59;4.70;99.90
18043;DHT22;9146;48.074;11.968;2023-02-15T16:08:29;4.60;99.90
18043;DHT22;9146;48.074;11.968;2023-02-15T16:10:57;4.60;99.90
18043;DHT22;9146;48.074;11.968;2023-02-15T16:13:25;4.50;99.90
18043;DHT22;9146;48.074;11.968;2023-02-15T16:15:55;4.50;99.90
18043;DHT22;9146;48.074;11.968;2023-02-15T16:18:24;4.40;99.90
18043;DHT22;9146;48.074;11.968;2023-02-15T16:20:56;4.40;99.90
18043;DHT22;9146;48.074;11.968;2023-02-15T16:23:47;4.30;99.90
18043;DHT22;9146;48.074;11.968;2023-02-15T16:26:24;4.20;99.90
18043;DHT22;9146;48.074;11.968;2023-02-15T16:28:56;4.20;99.90
18043;DHT22;9146;48.074;11.968;2023-02-15T16:31:26;4.10;99.90
18043;DHT22;9146;48.074;11.968;2023-02-15T16:33:53;3.90;99.90